Station: Minlaton Airport

  Atmospheric Gas Attenuation - ITU Rec 676-11   --------------- db/100km ---------------
Date Time Temp RH % AH g/m3 Dew Point Wind Direction Speed kph Gust kph Barometer mB Rainfall Since 9am 24GHz 47GHz 76GHz 122GHz 134GHz 241GHz
24 18:20 34.1 19 7.17 7.2 20 24 1001.2 0 15.8 18.7 26.4 69.1 61.7 212.1
24 18:10 35.5 17 6.9 6.7 22 24 1001.2 0 15.1 18.1 25.2 66.0 58.2 199.8
24 18:00 35.5 15 6.09 4.9 22 28 1001.1 0 13.5 17.2 23.0 60.0 50.8 173.8
24 17:50 36.7 14 6.05 4.9 24 28 1001.2 0 13.4 16.9 22.6 58.9 49.7 170.1
24 17:40 36.7 13 5.62 3.8 28 30 1001.2 0 12.5 16.5 21.4 55.8 45.9 156.8
24 17:30 35.2 15 6 4.7 28 32 1001.3 0 13.3 17.1 22.8 59.5 50.1 171.5
24 17:20 35.5 14 5.68 3.9 30 32 1001.3 0 12.7 16.7 21.9 57.0 47.1 160.9
24 17:10 36.2 13 5.47 3.4 30 35 1001.3 0 12.2 16.4 21.1 55.1 44.9 153.1
24 17:00 35.4 17 6.87 6.6 28 35 1001.4 0 15.1 18.1 25.2 65.8 58.0 199.1
24 16:50 34.3 21 8.01 8.8 26 30 1001.6 0 17.5 19.7 28.8 75.6 69.7 240.1
24 16:40 32.6 26 9.06 10.6 33 35 1001.7 0 19.7 21.3 32.6 85.8 81.8 282.5
24 16:30 33.2 25 9 10.5 26 35 1001.6 0 19.5 21.1 32.2 84.6 80.6 278.3
24 16:20 32.9 25 8.86 10.3 24 28 1001.7 0 19.3 21.0 31.9 83.8 79.4 274.3
24 16:10 33 20 7.12 7.1 24 26 1001.8 0 15.7 18.9 26.6 69.7 62.1 213.3
24 16:00 33.3 23 8.32 9.4 24 33 1001.7 0 18.1 20.2 30.1 79.0 73.6 253.9
24 15:50 32.3 26 8.92 10.4 24 28 1001.8 0 19.4 21.2 32.3 84.9 80.6 278.5
24 15:40 33.8 24 8.91 10.4 28 33 1001.9 0 19.3 20.9 31.7 83.3 79.1 273.2
24 15:30 35.4 19 7.67 8.3 28 35 1001.8 0 16.7 19.0 27.5 72.0 65.5 225.6
24 15:20 37 16 7.02 7 28 30 1001.9 0 15.3 18.0 25.1 65.8 58.3 200.3
24 15:10 35.4 18 7.27 7.5 30 33 1002 0 15.9 18.6 26.3 68.9 61.7 212.3
24 15:00 35.8 19 7.83 8.6 32 43 1001.9 0 17.0 19.1 27.8 72.9 66.7 229.9
24 14:50 40.5 8 4.19 -0.1 35 41 1001.8 0 9.5 14.4 17.0 44.1 32.4 109.3
24 14:40 41.3 9 4.91 2.1 30 35 1002 0 10.9 15.0 18.6 48.3 37.8 128.5
24 14:30 40.7 9 4.76 1.7 37 46 1002 0 10.7 15.0 18.4 47.7 36.8 125.1
24 14:20 40.8 9 4.78 1.7 35 39 1002.2 0 10.7 15.0 18.4 47.8 37.0 125.6
24 14:10 40.4 9 4.69 1.4 39 43 1002.3 0 10.5 14.9 18.3 47.4 36.4 123.6
24 14:00 40.6 9 4.74 1.6 37 46 1002.4 0 10.6 15.0 18.3 47.6 36.7 124.7
24 13:50 40.6 9 4.74 1.6 39 43 1002.6 0 10.6 15.0 18.3 47.6 36.7 124.8
24 13:40 40.1 9 4.62 1.2 39 44 1002.7 0 10.4 14.9 18.2 47.1 36.0 122.1
24 13:30 39.9 9 4.57 1.1 37 46 1002.7 0 10.3 14.9 18.1 46.9 35.7 120.9
24 13:20 40.6 9 4.74 1.6 37 46 1003 0 10.6 15.0 18.4 47.6 36.8 124.8
24 13:10 40.5 9 4.71 1.5 37 41 1003 0 10.6 15.0 18.3 47.5 36.6 124.1
24 13:00 41 9 4.83 1.9 37 48 1003 0 10.8 15.0 18.5 48.0 37.3 126.8
24 12:50 40.1 9 4.62 1.2 37 43 1003.3 0 10.4 14.9 18.2 47.1 36.0 122.1
24 12:40 38.2 9 4.2 -0.2 41 48 1003.4 0 9.6 14.8 17.5 45.4 33.4 112.6
24 12:30 38.9 8 3.87 -1.3 41 54 1003.4 0 8.9 14.4 16.6 42.9 30.4 102.4
24 12:20 38.8 8 3.85 -1.4 43 50 1003.6 0 8.9 14.4 16.6 42.8 30.3 101.9
24 12:10 38.7 8 3.83 -1.4 43 54 1003.7 0 8.8 14.4 16.5 42.7 30.2 101.5
24 12:00 39.4 8 3.96 -0.9 43 56 1003.6 0 9.1 14.4 16.7 43.2 31.0 104.4
24 11:50 40 8 4.09 -0.5 35 44 1003.8 0 9.3 14.4 16.9 43.8 31.8 107.3
24 11:40 41.2 8 4.34 0.4 35 46 1003.9 0 9.8 14.5 17.3 44.8 33.4 112.8
24 11:30 40 8 4.09 -0.5 41 54 1003.8 0 9.3 14.4 16.9 43.8 31.8 107.3
24 11:20 40.2 8 4.13 -0.3 35 44 1004 0 9.4 14.5 17.0 44.0 32.1 108.2
24 11:10 39.6 8 4 -0.8 37 44 1004 0 9.2 14.4 16.8 43.4 31.3 105.3
24 11:00 39.9 7 3.56 -2.4 41 54 1003.9 0 8.3 13.9 15.7 40.5 27.7 92.7
24 10:50 40.5 7 3.67 -1.9 44 54 1004 0 8.5 14.0 15.8 40.9 28.4 95.1
24 10:40 39.3 7 3.45 -2.8 39 46 1004 0 8.1 13.9 15.5 40.0 27.0 90.3
24 10:30 39.3 7 3.45 -2.8 41 50 1003.8 0 8.1 13.9 15.5 40.0 27.0 90.3
24 10:20 39.3 7 3.45 -2.8 30 35 1004 0 8.1 13.9 15.5 40.0 27.0 90.3
24 10:10 38 7 3.23 -3.7 37 41 1004 0 7.6 13.9 15.2 39.2 25.7 85.5
24 10:00 38.2 7 3.26 -3.6 32 41 1004 0 7.7 13.9 15.3 39.3 25.9 86.1
24 09:50 37 8 3.51 -2.7 30 33 1004.2 0 8.2 14.3 16.1 41.5 28.2 94.4
24 09:40 36.3 8 3.38 -3.2 32 39 1004.2 0 8.0 14.3 15.9 41.0 27.4 91.4
24 09:30 35.7 8 3.28 -3.6 32 41 1004.1 0 7.8 14.2 15.8 40.6 26.8 89.1
24 09:20 35.4 8 3.23 -3.8 33 39 1004.2 0 7.7 14.2 15.7 40.4 26.5 88.0
24 09:10 34.8 9 3.52 -2.7 30 35 1004.2 0 8.3 14.6 16.5 42.6 29.0 97.0
24 09:00 34.2 9 3.41 -3.2 33 39 1004.1 0 8.1 14.6 16.4 42.2 28.3 94.4
24 08:50 33.4 9 3.27 -3.7 28 35 1004.1 0 7.8 14.6 16.2 41.6 27.4 91.2
24 08:40 33.1 9 3.22 -4 33 39 1004.1 0 7.7 14.6 16.1 41.4 27.1 90.0
24 08:30 32.8 10 3.52 -2.8 33 43 1004 0 8.3 14.9 16.9 43.6 29.7 99.2
24 08:20 32.6 10 3.49 -2.9 33 41 1004.2 0 8.3 14.9 16.9 43.5 29.5 98.5
24 08:10 32.3 10 3.43 -3.2 32 39 1004.1 0 8.2 14.9 16.8 43.2 29.1 97.1
24 08:00 32.1 10 3.4 -3.3 35 46 1004 0 8.1 14.9 16.7 43.1 28.9 96.4
24 07:50 31.9 10 3.36 -3.5 39 44 1004.1 0 8.0 14.9 16.7 42.9 28.7 95.4
24 07:40 31.7 10 3.32 -3.6 39 44 1004 0 8.0 14.9 16.6 42.8 28.4 94.4
24 07:30 31.4 11 3.6 -2.6 37 46 1003.8 0 8.5 15.2 17.4 44.8 30.9 103.2
24 07:20 31.3 11 3.58 -2.6 39 48 1003.9 0 8.5 15.2 17.3 44.8 30.7 102.7
24 07:10 30.9 12 3.82 -1.8 35 39 1003.8 0 9.0 15.5 18.1 46.6 33.0 110.6
24 07:00 30.1 12 3.66 -2.4 33 41 1003.6 0 8.7 15.5 17.8 45.9 31.9 106.6
24 06:50 29.6 13 3.86 -1.7 33 43 1003.6 0 9.1 15.8 18.4 47.6 33.8 113.4
24 06:40 29.4 13 3.82 -1.9 32 35 1003.6 0 9.0 15.8 18.4 47.4 33.5 112.4
24 06:30 28.9 14 4 -1.2 28 35 1003.5 0 9.4 16.0 19.0 49.0 35.3 118.8
24 06:20 29.1 14 4.04 -1.1 30 32 1003.7 0 9.5 16.0 19.0 49.2 35.6 119.8
24 06:10 29 14 4.02 -1.2 30 33 1003.7 0 9.5 16.0 19.0 49.1 35.5 119.3
24 06:00 28.9 14 4 -1.2 28 35 1003.5 0 9.4 16.0 19.0 49.0 35.3 118.8
24 05:50 28.9 14 4 -1.2 30 35 1003.5 0 9.4 16.0 19.0 49.0 35.3 118.8
24 05:40 29 14 4.02 -1.2 30 33 1003.5 0 9.5 16.0 19.0 49.1 35.5 119.3
24 05:30 29.2 14 4.07 -1 30 35 1003.3 0 9.6 16.1 19.1 49.4 35.8 120.6
24 05:20 29.4 14 4.11 -0.9 32 35 1003.3 0 9.6 16.1 19.1 49.5 36.1 121.6
24 04:50 29.8 14 4.2 -0.5 32 37 1003.4 0 9.8 16.1 19.3 50.0 36.8 123.9
24 04:40 29.7 15 4.48 0.3 32 35 1003.5 0 10.4 16.4 20.1 52.1 39.3 133.0
24 04:30 29.7 15 4.48 0.3 33 43 1003.4 0 10.4 16.4 20.1 52.1 39.3 133.0
24 04:20 29.6 16 4.75 1.1 33 39 1003.5 0 10.9 16.8 20.9 54.1 41.9 141.9
24 04:10 29.6 17 5.05 2 35 43 1003.6 0 11.6 17.1 21.7 56.4 44.7 151.7
24 04:00 29.6 18 5.34 2.8 33 43 1003.5 0 12.2 17.4 22.5 58.6 47.4 161.3
24 03:50 29.7 19 5.67 3.6 35 41 1003.7 0 12.8 17.8 23.4 61.1 50.5 172.1
24 03:40 29.7 20 5.97 4.4 35 41 1003.7 0 13.4 18.2 24.3 63.4 53.3 182.2
24 03:30 29.7 20 5.97 4.4 35 44 1003.6 0 13.4 18.2 24.3 63.4 53.3 182.2
24 03:20 29.6 21 6.23 5 35 41 1003.8 0 14.0 18.5 25.1 65.5 55.9 191.4
24 03:10 29.3 22 6.42 5.4 37 41 1003.9 0 14.4 18.8 25.8 67.3 58.0 198.6
24 03:00 29.3 23 6.72 6 37 48 1003.9 0 15.0 19.2 26.7 69.7 61.0 209.1
24 02:50 29.4 23 6.75 6.1 35 41 1004.1 0 15.1 19.2 26.7 69.9 61.2 209.9
24 02:40 29.6 22 6.53 5.6 39 43 1004.1 0 14.6 18.9 26.0 67.9 58.9 201.8
24 02:30 29.5 22 6.49 5.6 33 43 1004.1 0 14.5 18.8 25.9 67.7 58.6 200.6
24 02:20 30 21 6.37 5.3 32 35 1004.3 0 14.3 18.6 25.4 66.4 57.0 195.3
24 02:10 29.8 22 6.6 5.8 35 39 1004.2 0 14.7 18.9 26.2 68.3 59.4 203.7
24 02:00 29.6 22 6.53 5.6 35 43 1004.2 0 14.6 18.9 26.0 67.9 58.9 201.8
24 01:50 29.3 23 6.72 6 35 41 1004.4 0 15.0 19.2 26.7 69.7 61.0 209.2
24 01:40 29 24 6.89 6.4 32 39 1004.6 0 15.4 19.5 27.3 71.4 62.9 216.0
24 01:30 28.5 26 7.27 7.1 32 39 1004.6 0 16.2 20.0 28.6 75.0 67.2 230.9

Last Refresh: 24-Jan-2021 18:35:11

Most of the information presented on this site is sourced from the Bureau of Meteorology.  Copyright in all material sourced from the Bureau of Meteorology resides with the Commonwealth of Australia.